Time;durP1;ratioP1;P1;durP2;ratioP2;P2;SDS_P1;SDS_P2;PMS_P1;PMS_P2;Temp;Humidity;BMP_temperature;BMP_pressure;BME280_temperature;BME280_humidity;BME280_pressure;Samples;Min_cycle;Max_cycle;Signal;HPM_P1;HPM_P2
2023/10/15 00:00:21;;;;;;;12.73;2.57;;;8.30;99.90;;;;;;5057187;28;20025;-73
2023/10/15 00:02:52;;;;;;;7.27;2.13;;;8.20;99.90;;;;;;5053398;28;20041;-73
2023/10/15 00:05:19;;;;;;;14.02;2.30;;;8.10;99.90;;;;;;5039781;28;20033;-73
2023/10/15 00:07:51;;;;;;;8.33;2.30;;;8.10;99.90;;;;;;5055761;28;20089;-73
2023/10/15 00:10:18;;;;;;;8.00;1.85;;;8.10;99.90;;;;;;5039623;28;20021;-73
2023/10/15 00:12:49;;;;;;;7.97;2.07;;;8.10;99.90;;;;;;5056307;28;20029;-73
2023/10/15 00:15:23;;;;;;;10.17;1.97;;;8.10;99.90;;;;;;5056641;28;20038;-73
2023/10/15 00:17:51;;;;;;;8.43;2.37;;;8.10;99.90;;;;;;5058195;28;20017;-73
2023/10/15 00:20:21;;;;;;;5.50;2.13;;;8.10;99.90;;;;;;5056402;28;20025;-73
2023/10/15 00:22:51;;;;;;;12.57;2.73;;;8.10;99.90;;;;;;5056637;28;20013;-73
2023/10/15 00:25:19;;;;;;;9.93;2.03;;;8.00;99.90;;;;;;5037057;28;20025;-74
2023/10/15 00:27:56;;;;;;;13.13;2.20;;;8.00;99.90;;;;;;5037884;28;20030;-75
2023/10/15 00:30:32;;;;;;;8.17;2.57;;;7.90;99.90;;;;;;5055989;28;20056;-73
2023/10/15 00:32:57;;;;;;;10.10;2.43;;;8.00;99.90;;;;;;5057995;28;20030;-73
2023/10/15 00:35:25;;;;;;;8.23;2.33;;;8.00;99.90;;;;;;5039732;28;20032;-74
2023/10/15 00:38:00;;;;;;;9.37;1.80;;;8.00;99.90;;;;;;5036354;28;20017;-73
2023/10/15 00:40:27;;;;;;;11.53;2.10;;;7.90;99.90;;;;;;5056828;28;20037;-74
2023/10/15 00:42:53;;;;;;;10.67;2.80;;;7.90;99.90;;;;;;5054507;28;20022;-73
2023/10/15 00:45:21;;;;;;;11.87;2.80;;;7.90;99.90;;;;;;5055656;28;20060;-74
2023/10/15 00:48:00;;;;;;;11.43;2.33;;;7.90;99.90;;;;;;5040861;28;20035;-73
2023/10/15 00:50:31;;;;;;;12.53;2.53;;;7.90;99.90;;;;;;5038895;28;20089;-73
2023/10/15 00:53:00;;;;;;;6.90;1.90;;;7.90;99.90;;;;;;5055465;28;20041;-74
2023/10/15 00:55:28;;;;;;;11.10;2.63;;;7.90;99.90;;;;;;5044770;28;20017;-74
2023/10/15 00:57:56;;;;;;;11.67;2.37;;;7.90;99.90;;;;;;5040314;28;20013;-74
2023/10/15 01:03:09;;;;;;;11.57;2.37;;;7.80;99.90;;;;;;5055099;28;20056;-74
2023/10/15 01:05:46;;;;;;;12.90;2.60;;;7.80;99.90;;;;;;5039643;28;20017;-73
2023/10/15 01:08:16;;;;;;;9.03;2.30;;;7.80;99.90;;;;;;5053005;28;20061;-74
2023/10/15 01:10:44;;;;;;;12.77;2.43;;;7.80;99.90;;;;;;5038330;28;20040;-73
2023/10/15 01:13:21;;;;;;;10.43;1.93;;;7.80;99.90;;;;;;5039338;28;20034;-74
2023/10/15 01:15:54;;;;;;;8.27;2.07;;;7.70;99.90;;;;;;5039280;28;20042;-73
2023/10/15 01:18:20;;;;;;;11.10;2.20;;;7.70;99.90;;;;;;5058049;28;20085;-73
2023/10/15 01:20:45;;;;;;;11.70;2.00;;;7.70;99.90;;;;;;5038380;28;20018;-73
2023/10/15 01:23:28;;;;;;;12.03;2.13;;;7.70;99.90;;;;;;5057917;28;20021;-73
2023/10/15 01:25:57;;;;;;;9.07;2.20;;;7.70;99.90;;;;;;5055439;28;20029;-73
2023/10/15 01:28:35;;;;;;;10.03;2.80;;;7.70;99.90;;;;;;5040509;28;20040;-73
2023/10/15 01:31:02;;;;;;;12.37;2.40;;;7.70;99.90;;;;;;5043376;28;20018;-73
2023/10/15 01:33:30;;;;;;;5.73;1.83;;;7.70;99.90;;;;;;5043190;28;20025;-73
2023/10/15 01:36:06;;;;;;;7.87;2.20;;;7.70;99.90;;;;;;5058428;28;20029;-73
2023/10/15 01:38:33;;;;;;;11.67;2.67;;;7.70;99.90;;;;;;5040866;28;20049;-73
2023/10/15 01:41:03;;;;;;;9.97;2.70;;;7.70;99.90;;;;;;5058846;28;20037;-73
2023/10/15 01:43:32;;;;;;;11.03;1.93;;;7.60;99.90;;;;;;5058282;28;20063;-73
2023/10/15 01:45:58;;;;;;;8.57;2.03;;;7.60;99.90;;;;;;5059965;28;20037;-73
2023/10/15 01:48:24;;;;;;;9.40;2.30;;;7.60;99.90;;;;;;5061466;28;20010;-73
2023/10/15 01:50:55;;;;;;;11.37;2.13;;;7.60;99.90;;;;;;5059023;28;20045;-73
2023/10/15 01:53:23;;;;;;;9.03;2.27;;;7.60;99.90;;;;;;5041115;28;20073;-73
2023/10/15 01:56:12;;;;;;;8.83;2.00;;;7.60;99.90;;;;;;5042414;28;20052;-73
2023/10/15 01:58:39;;;;;;;11.13;2.67;;;7.60;99.90;;;;;;5060929;28;20063;-74
2023/10/15 02:01:31;;;;;;;9.67;1.80;;;7.50;99.90;;;;;;5041628;28;20107;-74
2023/10/15 02:03:59;;;;;;;10.37;2.07;;;7.50;99.90;;;;;;5060855;28;20014;-73
2023/10/15 02:06:25;;;;;;;6.77;1.83;;;7.50;99.90;;;;;;5061527;28;20036;-73
2023/10/15 02:08:51;;;;;;;10.37;2.20;;;7.50;99.90;;;;;;5043097;28;20010;-73
2023/10/15 02:11:23;;;;;;;11.60;2.13;;;7.50;99.90;;;;;;5057004;28;20013;-73
2023/10/15 02:13:55;;;;;;;15.27;2.47;;;7.50;99.90;;;;;;5057291;28;20044;-74
2023/10/15 02:16:29;;;;;;;9.80;1.80;;;7.50;99.90;;;;;;5058575;28;20029;-73
2023/10/15 02:18:58;;;;;;;8.83;2.00;;;7.50;99.90;;;;;;5039984;28;20055;-73
2023/10/15 02:21:27;;;;;;;8.87;2.57;;;7.40;99.90;;;;;;5040392;28;20023;-74
2023/10/15 02:24:07;;;;;;;7.80;2.30;;;7.40;99.90;;;;;;5042760;28;20041;-73
2023/10/15 02:26:32;;;;;;;8.03;2.23;;;7.40;99.90;;;;;;5058647;28;20032;-74
2023/10/15 02:29:07;;;;;;;7.33;1.97;;;7.40;99.90;;;;;;5039952;28;20021;-74
2023/10/15 02:31:43;;;;;;;9.07;2.07;;;7.40;99.90;;;;;;5040556;28;20044;-73
2023/10/15 02:34:14;;;;;;;9.83;3.00;;;7.40;99.90;;;;;;5041869;28;20017;-74
2023/10/15 02:36:43;;;;;;;13.53;2.50;;;7.40;99.90;;;;;;5059395;28;20018;-73
2023/10/15 02:39:09;;;;;;;6.83;2.10;;;7.40;99.90;;;;;;5039126;28;20100;-73
2023/10/15 02:41:41;;;;;;;8.23;2.23;;;7.40;99.90;;;;;;5059325;28;20040;-73
2023/10/15 02:44:13;;;;;;;12.55;2.20;;;7.40;99.90;;;;;;5039718;28;20029;-74
2023/10/15 02:46:47;;;;;;;9.65;2.65;;;7.40;99.90;;;;;;5039141;28;20042;-73
2023/10/15 02:49:17;;;;;;;8.70;2.10;;;7.40;99.90;;;;;;5054435;28;20029;-73
2023/10/15 02:51:47;;;;;;;9.17;2.63;;;7.50;99.90;;;;;;5038333;28;20033;-73
2023/10/15 02:54:27;;;;;;;11.00;1.97;;;7.50;99.90;;;;;;5056682;28;20013;-73
2023/10/15 02:56:59;;;;;;;11.07;2.73;;;7.50;99.90;;;;;;5049866;28;20092;-73
2023/10/15 02:59:29;;;;;;;;;;;7.50;99.90;;;;;;5040686;28;20034;-73
2023/10/15 03:02:06;;;;;;;10.90;2.20;;;7.60;99.90;;;;;;5039148;28;19917;-73
2023/10/15 03:04:38;;;;;;;8.83;2.37;;;7.50;99.90;;;;;;5054757;28;20010;-73
2023/10/15 03:07:20;;;;;;;12.40;2.47;;;7.50;99.90;;;;;;5039073;28;20025;-73
2023/10/15 03:09:51;;;;;;;10.50;2.60;;;7.60;99.90;;;;;;5054114;28;20025;-73
2023/10/15 03:12:18;;;;;;;6.33;1.87;;;7.60;99.90;;;;;;5041414;28;21332;-73
2023/10/15 03:14:44;;;;;;;7.10;1.97;;;7.60;99.90;;;;;;5038611;28;20021;-73
2023/10/15 03:17:24;;;;;;;18.70;4.10;;;7.60;99.90;;;;;;5038452;28;20037;-74
2023/10/15 03:19:54;;;;;;;10.70;2.33;;;7.60;99.90;;;;;;5053842;28;20036;-73
2023/10/15 03:22:24;;;;;;;5.77;2.67;;;7.60;99.90;;;;;;5040479;28;20095;-73
2023/10/15 03:24:56;;;;;;;10.57;1.93;;;7.60;99.90;;;;;;5039444;28;20037;-74
2023/10/15 03:27:27;;;;;;;11.48;2.72;;;7.60;99.90;;;;;;5039294;28;20029;-73
2023/10/15 03:29:56;;;;;;;8.90;2.90;;;7.60;99.90;;;;;;5058161;28;20147;-74
2023/10/15 03:32:31;;;;;;;7.57;1.77;;;7.60;99.90;;;;;;5041312;28;20010;-73
2023/10/15 03:35:08;;;;;;;10.60;3.20;;;7.60;99.90;;;;;;5056938;28;20021;-73
2023/10/15 03:37:38;;;;;;;8.73;2.73;;;7.70;99.90;;;;;;5039609;28;20084;-73
2023/10/15 03:40:12;;;;;;;11.07;2.40;;;7.80;99.90;;;;;;5039078;28;20049;-73
2023/10/15 03:42:40;;;;;;;8.37;3.07;;;7.80;99.90;;;;;;5056480;28;20016;-74
2023/10/15 03:45:16;;;;;;;7.53;2.43;;;7.90;99.90;;;;;;5035728;28;20029;-73
2023/10/15 03:47:46;;;;;;;9.47;1.97;;;8.00;99.90;;;;;;5058018;28;20036;-73
2023/10/15 03:50:15;;;;;;;9.03;2.67;;;8.00;99.90;;;;;;5055262;28;20070;-73
2023/10/15 03:52:44;;;;;;;15.97;2.37;;;8.00;99.90;;;;;;5041177;28;20013;-73
2023/10/15 03:55:09;;;;;;;8.50;2.13;;;8.10;99.90;;;;;;5055218;28;20021;-73
2023/10/15 03:57:36;;;;;;;8.10;2.30;;;8.10;99.90;;;;;;5039384;28;20198;-73
2023/10/15 04:00:13;;;;;;;13.30;3.07;;;8.20;99.90;;;;;;5040766;28;20052;-73
2023/10/15 04:05:52;;;;;;;8.87;2.40;;;8.20;99.90;;;;;;4974831;28;20026;-73
2023/10/15 04:08:20;;;;;;;;;;;8.20;99.90;;;;;;4976694;28;20276;-74
2023/10/15 04:10:55;;;;;;;7.77;2.20;;;8.20;99.90;;;;;;4975552;28;19911;-73
2023/10/15 04:13:26;;;;;;;13.57;2.03;;;8.20;99.90;;;;;;4973752;28;20063;-73
2023/10/15 04:15:54;;;;;;;10.17;2.20;;;8.20;99.90;;;;;;4959297;28;20090;-73
2023/10/15 04:18:22;;;;;;;8.77;2.23;;;8.10;99.90;;;;;;4958941;28;20035;-74
2023/10/15 04:20:51;;;;;;;10.27;2.40;;;8.20;99.90;;;;;;4975340;28;20035;-74
2023/10/15 04:23:34;;;;;;;11.63;2.70;;;8.30;99.90;;;;;;4973019;28;20035;-73
2023/10/15 04:26:11;;;;;;;11.43;2.40;;;8.30;99.90;;;;;;4973829;28;20086;-73
2023/10/15 04:28:37;;;;;;;12.10;2.57;;;8.30;99.90;;;;;;4972946;28;20120;-73
2023/10/15 04:31:22;;;;;;;6.63;2.10;;;8.30;99.90;;;;;;4972110;28;20086;-73
2023/10/15 04:33:51;;;;;;;11.43;2.60;;;8.30;99.90;;;;;;4957445;28;20042;-73
2023/10/15 04:36:17;;;;;;;12.13;2.50;;;8.20;99.90;;;;;;5003693;28;20513;-74
2023/10/15 04:38:43;;;;;;;12.93;2.73;;;8.20;99.90;;;;;;5038464;28;20049;-73
2023/10/15 04:41:10;;;;;;;9.47;3.20;;;8.20;99.90;;;;;;5039192;28;20026;-73
2023/10/15 04:43:42;;;;;;;10.90;3.27;;;8.20;99.90;;;;;;5056629;28;20009;-74
2023/10/15 04:46:08;;;;;;;12.10;2.03;;;8.20;99.90;;;;;;5038098;28;20018;-73
2023/10/15 04:48:39;;;;;;;9.33;2.67;;;8.30;99.90;;;;;;5039306;28;20093;-73
2023/10/15 04:51:05;;;;;;;11.37;3.20;;;8.20;99.90;;;;;;5040876;28;20055;-73
2023/10/15 04:53:31;;;;;;;12.87;2.13;;;8.20;99.90;;;;;;5039890;28;20045;-73
2023/10/15 04:55:59;;;;;;;9.23;2.93;;;8.10;99.90;;;;;;5056027;28;20025;-73
2023/10/15 04:58:27;;;;;;;8.43;2.47;;;8.10;99.90;;;;;;5037970;28;20009;-73
2023/10/15 05:00:57;;;;;;;10.23;2.60;;;8.10;99.90;;;;;;5040026;28;20040;-73
2023/10/15 05:03:23;;;;;;;14.77;2.87;;;8.10;99.90;;;;;;5038142;28;20020;-73
2023/10/15 05:05:49;;;;;;;9.10;2.53;;;8.10;99.90;;;;;;5039239;28;20025;-73
2023/10/15 05:08:17;;;;;;;11.17;2.90;;;8.10;99.90;;;;;;5036151;28;20034;-73
2023/10/15 05:10:53;;;;;;;7.67;2.37;;;8.00;99.90;;;;;;5056399;28;20025;-73
2023/10/15 05:13:19;;;;;;;11.03;2.30;;;8.00;99.90;;;;;;5056780;28;20047;-73
2023/10/15 05:15:48;;;;;;;10.03;2.70;;;7.90;99.90;;;;;;5056157;28;20032;-73
2023/10/15 05:18:15;;;;;;;9.37;2.50;;;7.90;99.90;;;;;;5038953;28;20025;-73
2023/10/15 05:20:41;;;;;;;9.10;2.30;;;7.80;99.90;;;;;;5057778;28;20010;-75
2023/10/15 05:23:09;;;;;;;13.27;2.93;;;7.90;99.90;;;;;;5055070;28;20021;-74
2023/10/15 05:25:39;;;;;;;7.60;2.03;;;7.80;99.90;;;;;;5055934;28;20036;-73
2023/10/15 05:28:05;;;;;;;3.93;1.67;;;7.80;99.90;;;;;;5055951;28;20037;-73
2023/10/15 05:30:31;;;;;;;8.83;2.07;;;7.80;99.90;;;;;;5037252;28;20057;-73
2023/10/15 05:33:00;;;;;;;7.60;1.80;;;7.80;99.90;;;;;;5041680;28;20018;-74
2023/10/15 05:35:27;;;;;;;5.07;1.90;;;7.80;99.90;;;;;;5038514;28;20021;-74
2023/10/15 05:37:54;;;;;;;9.83;2.43;;;7.80;99.90;;;;;;5055543;28;20022;-73
2023/10/15 05:40:21;;;;;;;5.47;1.80;;;7.80;99.90;;;;;;5055227;28;20056;-73
2023/10/15 05:42:47;;;;;;;5.70;2.40;;;7.80;99.90;;;;;;5036689;28;20021;-73
2023/10/15 05:45:16;;;;;;;9.73;2.10;;;7.80;99.90;;;;;;5040187;28;20108;-72
2023/10/15 05:47:48;;;;;;;6.83;2.03;;;7.80;99.90;;;;;;5057691;28;20085;-73
2023/10/15 05:50:18;;;;;;;4.60;1.70;;;7.80;99.90;;;;;;5056452;28;20028;-73
2023/10/15 05:52:45;;;;;;;8.43;2.30;;;7.80;99.90;;;;;;5036187;28;20021;-73
2023/10/15 05:55:11;;;;;;;8.40;2.60;;;7.80;99.90;;;;;;5038676;28;20093;-73
2023/10/15 05:57:37;;;;;;;7.47;1.83;;;7.80;99.90;;;;;;5040750;28;20025;-73
2023/10/15 06:00:17;;;;;;;13.43;2.57;;;7.90;99.90;;;;;;5056413;28;20049;-73
2023/10/15 06:02:47;;;;;;;12.27;2.80;;;7.80;99.90;;;;;;5039838;28;20135;-73
2023/10/15 06:05:13;;;;;;;8.47;2.27;;;7.80;99.90;;;;;;5056058;28;20036;-73
2023/10/15 06:07:43;;;;;;;10.63;2.50;;;7.80;99.90;;;;;;5056862;28;20021;-73
2023/10/15 06:10:12;;;;;;;6.70;1.97;;;7.90;99.90;;;;;;5055812;28;20030;-73
2023/10/15 06:12:41;;;;;;;10.00;2.97;;;7.90;99.90;;;;;;5057836;28;20021;-73
2023/10/15 06:15:08;;;;;;;8.03;2.63;;;7.80;99.90;;;;;;5039946;28;20048;-73
2023/10/15 06:17:34;;;;;;;7.50;2.23;;;7.80;99.90;;;;;;5041072;28;20021;-73
2023/10/15 06:20:12;;;;;;;7.93;2.13;;;7.80;99.90;;;;;;5042917;28;20049;-73
2023/10/15 06:22:43;;;;;;;6.63;2.30;;;7.90;99.90;;;;;;5040074;28;20030;-73
2023/10/15 06:25:11;;;;;;;7.10;2.10;;;7.80;99.90;;;;;;5058899;28;20037;-73
2023/10/15 06:27:37;;;;;;;6.87;2.80;;;7.80;99.90;;;;;;5056510;28;20069;-73
2023/10/15 06:30:17;;;;;;;10.73;4.17;;;7.60;99.90;;;;;;5039559;28;20052;-73
2023/10/15 06:32:47;;;;;;;8.93;3.27;;;7.60;99.90;;;;;;5057346;28;20029;-73
2023/10/15 06:35:19;;;;;;;7.50;3.23;;;7.60;99.90;;;;;;5039706;28;20033;-73
2023/10/15 06:37:48;;;;;;;9.17;3.90;;;7.50;99.90;;;;;;5058861;28;20032;-73
2023/10/15 06:40:15;;;;;;;9.27;3.80;;;7.50;99.90;;;;;;5041297;28;20024;-73
2023/10/15 06:42:44;;;;;;;9.23;3.73;;;7.50;99.90;;;;;;5039870;28;20027;-72
2023/10/15 06:45:10;;;;;;;7.40;3.83;;;7.50;99.90;;;;;;5056574;28;20032;-72
2023/10/15 06:47:37;;;;;;;13.93;4.17;;;7.50;99.90;;;;;;5042722;28;20025;-73
2023/10/15 06:50:07;;;;;;;5.43;3.47;;;7.40;99.90;;;;;;5039625;28;20056;-73
2023/10/15 06:52:38;;;;;;;8.23;3.77;;;7.40;99.90;;;;;;5057494;28;20097;-73
2023/10/15 06:55:08;;;;;;;11.73;4.50;;;7.30;99.90;;;;;;5058720;28;20044;-74
2023/10/15 06:57:38;;;;;;;11.03;3.77;;;7.30;99.90;;;;;;5059268;28;20033;-73
2023/10/15 07:00:10;;;;;;;9.07;3.80;;;7.30;99.90;;;;;;5039095;28;20033;-73
2023/10/15 07:02:36;;;;;;;9.50;3.83;;;7.20;99.90;;;;;;5057649;28;20013;-74
2023/10/15 07:05:08;;;;;;;4.33;3.37;;;7.20;99.90;;;;;;5058123;28;20044;-74
2023/10/15 07:07:36;;;;;;;12.07;4.47;;;7.20;99.90;;;;;;5057494;28;20013;-73
2023/10/15 07:10:06;;;;;;;9.90;4.80;;;7.20;99.90;;;;;;5037747;28;20090;-74
2023/10/15 07:12:32;;;;;;;6.73;4.27;;;7.30;99.90;;;;;;5041076;28;20036;-74
2023/10/15 07:15:01;;;;;;;9.40;4.30;;;7.30;99.90;;;;;;5039685;28;20018;-74
2023/10/15 07:17:29;;;;;;;13.07;3.93;;;7.30;99.90;;;;;;5045648;28;20052;-74
2023/10/15 07:19:55;;;;;;;10.13;4.30;;;7.30;99.90;;;;;;5058078;28;20029;-75
2023/10/15 07:22:21;;;;;;;6.80;3.90;;;7.40;99.90;;;;;;5040937;28;20056;-75
2023/10/15 07:24:46;;;;;;;9.60;6.07;;;7.50;99.90;;;;;;5042940;28;21746;-74
2023/10/15 07:27:15;;;;;;;8.63;5.10;;;7.50;99.90;;;;;;5039368;28;20024;-75
2023/10/15 07:29:40;;;;;;;11.43;5.40;;;7.50;99.90;;;;;;5041892;28;20044;-74
2023/10/15 07:32:08;;;;;;;9.87;4.90;;;7.50;99.90;;;;;;5058755;28;20033;-74
2023/10/15 07:34:36;;;;;;;11.40;5.43;;;7.50;99.90;;;;;;5056889;28;20030;-74
2023/10/15 07:37:04;;;;;;;9.47;4.70;;;7.60;99.90;;;;;;5041073;28;20037;-74
2023/10/15 07:39:31;;;;;;;8.50;4.63;;;7.60;99.90;;;;;;5037805;28;20052;-75
2023/10/15 07:41:58;;;;;;;7.83;4.03;;;7.60;99.90;;;;;;5039658;28;20024;-75
2023/10/15 07:44:24;;;;;;;7.90;4.67;;;7.60;99.90;;;;;;5041064;28;20028;-75
2023/10/15 07:46:56;;;;;;;9.73;4.50;;;7.70;99.90;;;;;;5039617;28;20014;-74
2023/10/15 07:49:24;;;;;;;;;;;7.70;99.90;;;;;;5057106;28;20025;-74
2023/10/15 07:51:55;;;;;;;9.63;4.67;;;7.80;99.90;;;;;;5056763;28;19913;-74
2023/10/15 07:54:20;;;;;;;8.10;4.63;;;7.80;99.90;;;;;;5038603;28;20021;-73
2023/10/15 07:56:46;;;;;;;11.93;4.83;;;7.80;99.90;;;;;;5040573;28;20018;-73
2023/10/15 07:59:11;;;;;;;10.23;5.20;;;7.80;99.90;;;;;;5055823;28;20045;-74
2023/10/15 08:01:37;;;;;;;11.33;5.20;;;7.80;99.90;;;;;;5056484;28;20044;-73
2023/10/15 08:04:07;;;;;;;7.13;4.73;;;7.80;99.90;;;;;;5039915;28;20033;-75
2023/10/15 08:06:34;;;;;;;12.03;5.00;;;7.80;99.90;;;;;;5039730;28;20013;-73
2023/10/15 08:09:10;;;;;;;7.70;3.93;;;7.90;99.90;;;;;;5037614;28;20044;-74
2023/10/15 08:11:35;;;;;;;9.00;4.70;;;7.90;99.90;;;;;;5040945;28;20037;-74
2023/10/15 08:14:01;;;;;;;11.00;4.57;;;7.90;99.90;;;;;;5041643;28;20044;-74
2023/10/15 08:16:29;;;;;;;8.07;4.23;;;7.90;99.90;;;;;;5056258;28;20036;-74
2023/10/15 08:18:54;;;;;;;9.53;4.47;;;7.90;99.90;;;;;;5054468;28;20073;-75
2023/10/15 08:21:22;;;;;;;9.17;4.80;;;7.90;99.90;;;;;;5040134;28;20020;-73
2023/10/15 08:23:48;;;;;;;13.33;4.90;;;7.90;99.90;;;;;;5056029;28;20064;-74
2023/10/15 08:26:16;;;;;;;7.87;4.20;;;8.00;99.90;;;;;;5057983;28;20099;-74
2023/10/15 08:28:43;;;;;;;10.70;4.80;;;8.00;99.90;;;;;;5035653;28;20029;-73
2023/10/15 08:31:09;;;;;;;12.80;5.20;;;8.00;99.90;;;;;;5055157;28;20259;-74
2023/10/15 08:33:37;;;;;;;7.40;4.77;;;8.00;99.90;;;;;;5038381;28;20017;-73
2023/10/15 08:36:05;;;;;;;11.50;5.03;;;8.00;99.90;;;;;;5037914;28;20025;-73
2023/10/15 08:38:35;;;;;;;10.97;5.30;;;8.00;99.90;;;;;;5039383;28;20025;-74
2023/10/15 08:41:10;;;;;;;15.27;5.70;;;8.00;99.90;;;;;;5038495;28;20025;-74
2023/10/15 08:43:40;;;;;;;8.27;5.00;;;7.90;99.90;;;;;;5052001;28;20024;-73
2023/10/15 08:46:10;;;;;;;9.50;4.30;;;7.90;99.90;;;;;;5037169;28;20014;-73
2023/10/15 08:48:40;;;;;;;9.30;4.90;;;7.90;99.90;;;;;;5052675;28;20021;-74
2023/10/15 08:51:08;;;;;;;7.27;4.37;;;8.00;99.90;;;;;;5047536;28;20096;-74
2023/10/15 08:53:42;;;;;;;6.63;3.30;;;8.10;99.90;;;;;;5053970;28;20021;-73
2023/10/15 08:56:09;;;;;;;7.80;3.70;;;8.00;99.90;;;;;;5036534;28;20041;-72
2023/10/15 08:58:35;;;;;;;8.23;3.30;;;8.00;99.90;;;;;;5052585;28;20067;-73
2023/10/15 09:01:02;;;;;;;6.20;3.77;;;8.00;99.90;;;;;;5052800;28;20026;-73
2023/10/15 09:03:30;;;;;;;8.93;3.27;;;8.00;99.90;;;;;;5037708;28;20033;-72
2023/10/15 09:05:56;;;;;;;7.83;3.33;;;8.00;99.90;;;;;;5051645;28;20081;-74
2023/10/15 09:08:24;;;;;;;7.63;4.13;;;8.00;99.90;;;;;;5052707;28;20409;-74
2023/10/15 09:10:52;;;;;;;7.83;3.97;;;8.00;99.90;;;;;;5052371;28;20085;-73
2023/10/15 09:13:21;;;;;;;10.37;4.17;;;8.00;99.90;;;;;;5037157;28;20044;-73
2023/10/15 09:15:48;;;;;;;7.77;4.40;;;8.00;99.90;;;;;;5037134;28;20021;-74
2023/10/15 09:18:17;;;;;;;7.53;4.03;;;8.00;99.90;;;;;;5056323;28;20010;-74
2023/10/15 09:20:50;;;;;;;9.60;4.23;;;7.90;99.90;;;;;;5055622;28;20071;-74
2023/10/15 09:23:21;;;;;;;9.07;4.83;;;8.00;99.90;;;;;;5038255;28;20036;-73
2023/10/15 09:25:51;;;;;;;7.40;4.50;;;8.00;99.90;;;;;;5054934;28;20048;-73
2023/10/15 09:28:19;;;;;;;10.03;4.70;;;8.10;99.90;;;;;;5038525;28;20013;-73
2023/10/15 09:30:48;;;;;;;6.07;4.23;;;8.20;99.90;;;;;;5053688;28;20044;-73
2023/10/15 09:33:17;;;;;;;10.03;4.27;;;8.20;99.90;;;;;;5035515;28;20021;-74
2023/10/15 09:35:43;;;;;;;5.03;3.67;;;8.20;99.90;;;;;;5035765;28;20101;-73
2023/10/15 09:38:17;;;;;;;5.90;3.57;;;8.20;99.90;;;;;;5055504;28;20021;-73
2023/10/15 09:40:45;;;;;;;11.63;4.77;;;8.20;99.90;;;;;;5054486;28;20049;-73
2023/10/15 09:43:14;;;;;;;11.10;4.30;;;8.30;99.90;;;;;;5037473;28;20030;-76
2023/10/15 09:45:42;;;;;;;8.20;3.17;;;8.30;99.90;;;;;;5035773;28;20022;-74
2023/10/15 09:48:11;;;;;;;4.43;3.17;;;8.30;99.90;;;;;;5037724;28;20187;-74
2023/10/15 09:50:44;;;;;;;7.13;3.30;;;8.30;99.90;;;;;;5055345;28;20037;-73
2023/10/15 09:53:12;;;;;;;4.93;3.03;;;8.40;99.90;;;;;;5059544;28;20131;-73
2023/10/15 09:55:40;;;;;;;5.30;3.27;;;8.50;99.90;;;;;;5042319;28;20045;-73
2023/10/15 09:58:10;;;;;;;6.43;2.93;;;8.50;99.90;;;;;;5059892;28;20052;-73
2023/10/15 10:03:31;;;;;;;7.03;3.20;;;8.60;99.90;;;;;;5060050;28;20014;-73
2023/10/15 10:06:17;;;;;;;7.47;2.57;;;8.70;99.90;;;;;;5041130;28;20071;-74
2023/10/15 10:08:57;;;;;;;4.03;2.20;;;8.70;99.90;;;;;;5059882;28;20067;-76
2023/10/15 10:11:45;;;;;;;4.07;2.13;;;8.80;99.90;;;;;;5059492;28;20017;-74
2023/10/15 10:14:23;;;;;;;6.03;2.17;;;8.80;99.90;;;;;;5059523;28;20014;-73
2023/10/15 10:16:51;;;;;;;4.70;1.73;;;8.80;99.90;;;;;;5042340;28;20109;-74
2023/10/15 10:19:19;;;;;;;3.03;1.70;;;8.90;99.90;;;;;;5040232;28;20109;-74
2023/10/15 10:21:47;;;;;;;4.53;1.67;;;8.90;99.90;;;;;;5042054;28;20013;-74
2023/10/15 10:24:16;;;;;;;3.97;1.40;;;8.90;99.90;;;;;;5040552;28;20097;-73
2023/10/15 10:26:42;;;;;;;5.10;2.03;;;8.90;99.90;;;;;;5043895;28;20036;-74
2023/10/15 10:29:09;;;;;;;8.40;2.40;;;8.80;99.90;;;;;;5042793;28;20013;-73
2023/10/15 10:31:36;;;;;;;7.07;1.70;;;8.80;99.90;;;;;;5055804;28;20014;-74
2023/10/15 10:34:03;;;;;;;7.47;1.73;;;8.80;99.90;;;;;;5042193;28;20041;-74
2023/10/15 10:36:30;;;;;;;3.57;2.03;;;8.80;99.90;;;;;;5040632;28;20076;-73
2023/10/15 10:39:10;;;;;;;4.77;2.00;;;8.90;99.90;;;;;;5043633;28;20021;-73
2023/10/15 10:41:50;;;;;;;6.77;2.03;;;8.90;99.90;;;;;;5059899;28;20021;-74
2023/10/15 10:44:22;;;;;;;6.20;2.73;;;9.00;99.90;;;;;;5042401;28;20032;-73
2023/10/15 10:46:48;;;;;;;4.10;1.63;;;9.00;99.90;;;;;;5042654;28;20029;-73
2023/10/15 10:49:13;;;;;;;3.93;1.33;;;9.20;99.90;;;;;;5057481;28;20075;-74
2023/10/15 10:51:43;;;;;;;3.77;2.10;;;9.30;99.90;;;;;;5041834;28;20029;-74
2023/10/15 10:54:09;;;;;;;4.80;2.00;;;9.30;99.90;;;;;;5042730;28;20035;-73
2023/10/15 10:56:38;;;;;;;3.70;1.73;;;9.30;99.90;;;;;;5039465;28;20036;-73
2023/10/15 10:59:06;;;;;;;2.67;1.50;;;9.30;99.90;;;;;;5039877;28;20034;-73
2023/10/15 11:01:41;;;;;;;4.77;1.77;;;9.20;99.90;;;;;;5042125;28;20056;-74
2023/10/15 11:04:11;;;;;;;7.60;2.00;;;9.30;99.90;;;;;;5055930;28;20033;-74
2023/10/15 11:06:38;;;;;;;4.03;1.90;;;9.40;99.90;;;;;;5060424;28;20024;-73
2023/10/15 11:09:16;;;;;;;7.40;2.20;;;9.40;99.90;;;;;;5039971;28;20109;-74
2023/10/15 11:11:55;;;;;;;3.17;1.90;;;9.50;99.90;;;;;;5041820;28;20109;-73
2023/10/15 11:14:26;;;;;;;5.43;2.00;;;9.50;99.90;;;;;;5060330;28;20020;-73
2023/10/15 11:16:55;;;;;;;4.70;1.53;;;9.60;99.90;;;;;;5059269;28;20052;-73
2023/10/15 11:19:29;;;;;;;6.43;1.90;;;9.70;99.90;;;;;;5057495;28;20022;-74
2023/10/15 11:21:56;;;;;;;5.10;1.63;;;9.60;99.90;;;;;;5043633;28;20029;-74
2023/10/15 11:24:24;;;;;;;5.97;1.57;;;9.30;99.90;;;;;;5046820;28;20021;-73
2023/10/15 11:26:51;;;;;;;2.23;1.07;;;8.90;99.90;;;;;;5040676;28;20009;-73
2023/10/15 11:29:19;;;;;;;5.40;1.30;;;8.50;99.90;;;;;;5042768;28;20013;-73
2023/10/15 11:31:57;;;;;;;1.10;0.30;;;8.30;99.90;;;;;;5043570;28;20037;-74
2023/10/15 11:34:28;;;;;;;3.03;1.27;;;8.10;99.90;;;;;;5037539;28;20048;-75
2023/10/15 11:36:57;;;;;;;6.13;0.60;;;8.00;99.90;;;;;;5059956;28;20013;-74
2023/10/15 11:39:42;;;;;;;2.20;1.10;;;7.80;99.90;;;;;;5059797;28;20056;-73
2023/10/15 11:42:10;;;;;;;5.37;1.10;;;7.70;99.90;;;;;;5043817;28;20036;-73
2023/10/15 11:44:43;;;;;;;5.80;2.50;;;7.80;99.90;;;;;;5040761;28;20020;-73
2023/10/15 11:47:16;;;;;;;5.77;2.60;;;7.80;99.90;;;;;;5059823;28;20080;-73
2023/10/15 11:49:42;;;;;;;3.60;2.20;;;7.90;99.90;;;;;;5055681;28;20041;-73
2023/10/15 11:52:11;;;;;;;10.60;2.93;;;8.00;99.90;;;;;;5041171;28;20010;-73
2023/10/15 11:54:43;;;;;;;10.07;2.87;;;8.10;99.90;;;;;;5039628;28;20028;-73
2023/10/15 11:57:16;;;;;;;4.57;2.47;;;8.10;99.90;;;;;;5043213;28;20029;-73
2023/10/15 11:59:42;;;;;;;9.53;3.17;;;8.20;99.90;;;;;;5056519;28;20064;-74
2023/10/15 12:02:11;;;;;;;6.50;2.90;;;8.30;99.90;;;;;;5041884;28;20089;-74
2023/10/15 12:04:40;;;;;;;6.53;2.83;;;8.30;99.90;;;;;;5053668;28;20971;-73
2023/10/15 12:07:16;;;;;;;6.37;3.57;;;8.40;99.90;;;;;;5058912;28;20021;-75
2023/10/15 12:09:47;;;;;;;10.50;3.60;;;8.50;99.90;;;;;;5037488;28;20013;-74
2023/10/15 12:12:13;;;;;;;10.20;3.93;;;8.60;99.90;;;;;;5053260;28;20018;-74
2023/10/15 12:14:39;;;;;;;7.47;3.70;;;8.60;99.90;;;;;;5055725;28;20044;-74
2023/10/15 12:17:07;;;;;;;7.53;3.37;;;8.70;99.90;;;;;;5039948;28;20025;-74
2023/10/15 12:19:35;;;;;;;6.23;3.83;;;8.90;99.90;;;;;;5039478;28;20047;-73
2023/10/15 12:22:05;;;;;;;5.80;2.60;;;9.00;99.90;;;;;;5059120;28;20014;-73
2023/10/15 12:24:35;;;;;;;5.73;2.37;;;9.00;99.90;;;;;;5057782;28;20033;-73
2023/10/15 12:27:00;;;;;;;5.90;2.23;;;9.20;99.90;;;;;;5039507;28;20019;-73
2023/10/15 12:29:28;;;;;;;6.83;1.50;;;9.40;99.90;;;;;;5041195;28;20031;-73
2023/10/15 12:31:58;;;;;;;3.23;1.53;;;9.60;99.90;;;;;;5038270;28;20037;-74
2023/10/15 12:34:24;;;;;;;5.83;2.20;;;9.60;99.90;;;;;;5057683;28;20029;-74
2023/10/15 12:36:50;;;;;;;3.63;1.23;;;9.60;99.90;;;;;;5040348;28;20022;-74
2023/10/15 12:39:15;;;;;;;3.20;1.50;;;9.60;99.90;;;;;;5039247;28;20033;-73
2023/10/15 12:41:41;;;;;;;4.47;1.50;;;9.60;99.90;;;;;;5058183;28;20020;-74
2023/10/15 12:44:13;;;;;;;5.10;2.00;;;9.60;99.90;;;;;;5041190;28;20017;-74
2023/10/15 12:46:44;;;;;;;4.30;1.90;;;9.40;99.90;;;;;;5041051;28;20035;-74
2023/10/15 12:49:12;;;;;;;5.87;2.07;;;9.50;99.90;;;;;;5057044;28;20067;-74
2023/10/15 12:51:40;;;;;;;5.83;1.73;;;9.50;99.90;;;;;;5038252;28;20021;-73
2023/10/15 12:54:06;;;;;;;7.63;1.73;;;9.50;99.90;;;;;;5057070;28;20164;-73
2023/10/15 12:56:33;;;;;;;2.87;1.10;;;9.60;99.90;;;;;;5055811;28;20017;-73
2023/10/15 12:59:01;;;;;;;2.17;0.80;;;9.70;99.90;;;;;;5057858;28;20034;-73
2023/10/15 13:01:26;;;;;;;3.80;1.10;;;9.80;99.90;;;;;;5056507;28;20051;-73
2023/10/15 13:03:58;;;;;;;2.03;1.00;;;10.00;99.90;;;;;;5039335;28;20025;-74
2023/10/15 13:06:28;;;;;;;2.78;0.95;;;10.10;99.90;;;;;;5039503;28;20021;-74
2023/10/15 13:08:55;;;;;;;3.30;1.10;;;10.20;99.90;;;;;;5057982;28;20085;-73
2023/10/15 13:11:21;;;;;;;3.50;0.80;;;10.50;99.90;;;;;;5037977;28;20053;-73
2023/10/15 13:13:49;;;;;;;2.37;0.70;;;11.10;99.90;;;;;;5040152;28;20021;-74
2023/10/15 13:16:14;;;;;;;1.87;0.60;;;12.20;99.90;;;;;;5039122;28;20013;-74